Beiseker, Canada
Current Conditions -  °F | °C
As of 1:00 PM on Sunday 23 Nov 2014 (Local Time) from CYYC Reporting Station
Overcast Overcast  
Wind Chill: 26°   Ceiling: 15000
Heat Index: 32°   Visibility: 40mi
Dew Point: 21°   Wind: 6mph
Humidity: 64%   Direction: 190°S
Pressure: 29.69"   Gusts: NA
Location:  51.38°N, 113.53°W
Report Text: CYYC 232000Z 19005KT 40SM BKN150 OVC210 00/M06 A2969 RMK AC6CI2 SLP098
Loading
Personal Weather Stations






























Interactive Weather Map New forecast layout! Learn more

10-Day Weather Forecast

Advertisements
Track Severe Weather on mobile